createdAt,value
2017-07-27T00:01:54.438Z,96592.97
2017-07-27T00:04:22.079Z,96592.55
2017-07-27T00:06:49.678Z,96598.92
2017-07-27T00:09:17.595Z,96592.55
2017-07-27T00:11:45.230Z,96589.14
2017-07-27T00:14:12.868Z,96594.67
2017-07-27T00:16:40.526Z,96594.27
2017-07-27T00:19:08.150Z,96591.73
2017-07-27T00:21:35.820Z,96591.34
2017-07-27T00:24:03.437Z,96587.08
2017-07-27T00:26:31.334Z,96583.69
2017-07-27T00:28:59.049Z,96578.20
2017-07-27T00:31:26.760Z,96580.83
2017-07-27T00:33:54.427Z,96575.75
2017-07-27T00:36:22.025Z,96578.33
2017-07-27T00:38:49.665Z,96578.41
2017-07-27T00:41:17.278Z,96583.08
2017-07-27T00:43:45.336Z,96577.98
2017-07-27T00:46:12.948Z,96580.14
2017-07-27T00:48:40.576Z,96579.33
2017-07-27T00:51:08.295Z,96579.37
2017-07-27T00:53:36.028Z,96582.39
2017-07-27T00:56:03.949Z,96580.70
2017-07-27T00:58:31.590Z,96576.48
2017-07-27T01:00:59.188Z,96580.77
2017-07-27T01:03:26.825Z,96579.08
2017-07-27T01:05:54.638Z,96571.88
2017-07-27T01:08:22.267Z,96577.86
2017-07-27T01:10:49.889Z,96579.55
2017-07-27T01:13:18.000Z,96577.45
2017-07-27T01:15:45.629Z,96580.90
2017-07-27T01:18:13.251Z,96583.89
2017-07-27T01:20:40.921Z,96582.66
2017-07-27T01:23:08.538Z,96580.54
2017-07-27T01:25:36.457Z,96584.83
2017-07-27T01:28:04.079Z,96588.69
2017-07-27T01:30:31.711Z,96587.43
2017-07-27T01:32:59.396Z,96585.74
2017-07-27T01:35:27.039Z,96587.03
2017-07-27T01:37:54.727Z,96585.79
2017-07-27T01:40:22.368Z,96587.95
2017-07-27T01:42:50.352Z,96592.66
2017-07-27T01:45:17.965Z,96585.90
2017-07-27T01:47:45.644Z,96586.75
2017-07-27T01:50:13.306Z,96582.11
2017-07-27T01:52:40.899Z,96582.53
2017-07-27T01:55:08.554Z,96583.42
2017-07-27T01:57:36.165Z,96581.73
2017-07-27T02:00:04.058Z,96580.02
2017-07-27T02:02:31.696Z,96581.73
2017-07-27T02:04:59.316Z,96575.35
2017-07-27T02:07:26.953Z,96577.52
2017-07-27T02:09:54.558Z,96569.05
2017-07-27T02:12:22.223Z,96573.72
2017-07-27T02:14:49.864Z,96573.30
2017-07-27T02:17:17.528Z,96569.91
2017-07-27T02:19:45.153Z,96567.83
2017-07-27T02:22:13.085Z,96565.70
2017-07-27T02:24:40.742Z,96560.62
2017-07-27T02:27:08.365Z,96561.08
2017-07-27T02:29:36.036Z,96563.21
2017-07-27T02:32:03.729Z,96565.33
2017-07-27T02:34:31.387Z,96567.47
2017-07-27T02:36:59.014Z,96567.48
2017-07-27T02:39:26.675Z,96567.92
2017-07-27T02:41:54.291Z,96564.51
2017-07-27T02:44:22.290Z,96567.06
2017-07-27T02:46:49.911Z,96569.20
2017-07-27T02:49:17.560Z,96571.75
2017-07-27T02:51:45.214Z,96572.61
2017-07-27T02:54:12.865Z,96575.59
2017-07-27T02:56:40.517Z,96582.41
2017-07-27T02:59:08.232Z,96581.97
2017-07-27T03:01:36.236Z,96584.94
2017-07-27T03:04:03.868Z,96579.89
2017-07-27T03:06:31.503Z,96583.70
2017-07-27T03:08:59.182Z,96579.92
2017-07-27T03:11:26.810Z,96579.07
2017-07-27T03:13:54.818Z,96572.27
2017-07-27T03:16:22.446Z,96571.05
2017-07-27T03:18:50.210Z,96577.41
2017-07-27T03:21:17.886Z,96581.23
2017-07-27T03:23:45.578Z,96583.79
2017-07-27T03:26:13.345Z,96580.39
2017-07-27T03:28:41.035Z,96579.13
2017-07-27T03:31:09.145Z,96580.00
2017-07-27T03:33:36.927Z,96584.25
2017-07-27T03:36:04.563Z,96582.58
2017-07-27T03:38:32.235Z,96580.86
2017-07-27T03:41:00.106Z,96582.58
2017-07-27T03:43:28.021Z,96586.84
2017-07-27T03:45:55.662Z,96587.67
2017-07-27T03:48:23.496Z,96593.22
2017-07-27T03:50:51.135Z,96589.39
2017-07-27T03:53:18.779Z,96582.61
2017-07-27T03:55:46.434Z,96581.79
2017-07-27T03:58:14.179Z,96586.02
2017-07-27T04:00:42.225Z,96584.31
2017-07-27T04:03:09.872Z,96583.05
2017-07-27T04:05:37.498Z,96584.31
2017-07-27T04:08:05.278Z,96588.11
2017-07-27T04:10:33.029Z,96593.63
2017-07-27T04:13:00.691Z,96587.23
2017-07-27T04:15:28.319Z,96584.28
2017-07-27T04:17:56.497Z,96581.70
2017-07-27T04:20:24.155Z,96579.17
2017-07-27T04:22:51.755Z,96581.70
2017-07-27T04:25:19.391Z,96584.23
2017-07-27T04:27:47.028Z,96587.61
2017-07-27T04:30:14.710Z,96590.99
2017-07-27T04:32:42.336Z,96594.81
2017-07-27T04:35:10.395Z,96593.09
2017-07-27T04:37:38.042Z,96593.94
2017-07-27T04:40:05.702Z,96596.05
2017-07-27T04:42:33.360Z,96601.97
2017-07-27T04:45:00.987Z,96597.72
2017-07-27T04:47:28.641Z,96597.28
2017-07-27T04:49:56.343Z,96598.98
2017-07-27T04:52:24.161Z,96595.13
2017-07-27T04:54:52.201Z,96597.23
2017-07-27T04:57:40.508Z,96595.95
2017-07-27T05:00:08.465Z,96596.34
2017-07-27T05:02:36.110Z,96601.41
2017-07-27T05:05:03.720Z,96602.25
2017-07-27T05:07:31.376Z,96598.84
2017-07-27T05:09:58.980Z,96599.23
2017-07-27T05:12:27.112Z,96603.88
2017-07-27T05:14:54.774Z,96591.98
2017-07-27T05:17:22.434Z,96591.06
2017-07-27T05:19:50.163Z,96592.76
2017-07-27T05:22:18.095Z,96596.56
2017-07-27T05:24:45.716Z,96600.78
2017-07-27T05:27:13.352Z,96598.61
2017-07-27T05:29:40.992Z,96593.88
2017-07-27T05:32:08.744Z,96593.44
2017-07-27T05:34:36.685Z,96595.92
2017-07-27T05:37:04.300Z,96593.75
2017-07-27T05:39:32.226Z,96584.38
2017-07-27T05:41:59.834Z,96582.61
2017-07-27T05:44:27.464Z,96588.94
2017-07-27T05:46:55.105Z,96589.77
2017-07-27T05:49:22.732Z,96589.70
2017-07-27T05:51:50.414Z,96583.70
2017-07-27T05:54:18.028Z,96589.14
2017-07-27T05:56:45.969Z,96594.60
2017-07-27T05:59:13.606Z,96599.27
2017-07-27T06:01:41.236Z,96597.11
2017-07-27T06:04:08.867Z,96598.35
2017-07-27T06:06:36.494Z,96600.40
2017-07-27T06:09:04.118Z,96600.31
2017-07-27T06:11:31.853Z,96591.27
2017-07-27T06:13:59.847Z,96587.27
2017-07-27T06:16:27.468Z,96584.53
2017-07-27T06:18:55.190Z,96585.95
2017-07-27T06:21:22.952Z,96583.12
2017-07-27T06:23:50.573Z,96591.82
2017-07-27T06:26:18.222Z,96591.16
2017-07-27T06:28:45.849Z,96588.58
2017-07-27T06:31:13.907Z,96591.93
2017-07-27T06:33:41.520Z,96598.20
2017-07-27T06:36:09.146Z,96594.67
2017-07-27T06:38:36.828Z,96588.97
2017-07-27T06:41:04.461Z,96595.52
2017-07-27T06:43:32.217Z,96592.66
2017-07-27T06:46:00.287Z,96600.14
2017-07-27T06:48:28.231Z,96594.48
2017-07-27T06:50:55.880Z,96598.65
2017-07-27T06:53:23.530Z,96593.81
2017-07-27T06:55:51.378Z,96597.58
2017-07-27T06:58:18.990Z,96594.45
2017-07-27T07:00:46.639Z,96594.95
2017-07-27T07:03:14.295Z,96593.63
2017-07-27T07:05:42.277Z,96588.08
2017-07-27T07:08:09.888Z,96592.70
2017-07-27T07:10:37.515Z,96596.09
2017-07-27T07:13:05.268Z,96598.22
2017-07-27T07:15:32.880Z,96602.49
2017-07-27T07:18:00.513Z,96594.91
2017-07-27T07:20:28.147Z,96598.83
2017-07-27T07:22:56.179Z,96608.65
2017-07-27T07:25:23.811Z,96602.59
2017-07-27T07:27:51.430Z,96602.88
2017-07-27T07:30:19.080Z,96605.30
2017-07-27T07:32:46.693Z,96603.16
2017-07-27T07:35:14.747Z,96606.08
2017-07-27T07:37:42.353Z,96602.27
2017-07-27T07:40:09.989Z,96603.13
2017-07-27T07:42:37.638Z,96603.66
2017-07-27T07:45:05.270Z,96607.61
2017-07-27T07:47:32.922Z,96612.34
2017-07-27T07:50:00.565Z,96617.94
2017-07-27T07:52:28.516Z,96610.17
2017-07-27T07:54:56.256Z,96615.23
2017-07-27T07:57:23.922Z,96611.23
2017-07-27T07:59:51.555Z,96606.85
2017-07-27T08:02:19.176Z,96611.44
2017-07-27T08:04:46.841Z,96605.34
2017-07-27T08:07:14.460Z,96610.36
2017-07-27T08:09:54.457Z,96614.98
2017-07-27T08:12:22.161Z,96613.27
2017-07-27T08:14:49.779Z,96614.09
2017-07-27T08:17:17.426Z,96618.75
2017-07-27T08:19:45.186Z,96623.87
2017-07-27T08:22:13.108Z,96624.77
2017-07-27T08:24:40.731Z,96619.48
2017-07-27T08:27:08.391Z,96615.25
2017-07-27T08:29:36.038Z,96624.19
2017-07-27T08:32:03.641Z,96629.31
2017-07-27T08:34:31.308Z,96620.73
2017-07-27T08:36:58.934Z,96619.91
2017-07-27T08:39:27.172Z,96611.29
2017-07-27T08:41:54.782Z,96614.63
2017-07-27T08:44:22.413Z,96614.50
2017-07-27T08:46:50.034Z,96623.70
2017-07-27T08:49:17.678Z,96616.70
2017-07-27T08:51:45.816Z,96617.23
2017-07-27T08:54:13.439Z,96616.96
2017-07-27T08:56:41.064Z,96612.68
2017-07-27T08:59:08.833Z,96605.90
2017-07-27T09:01:36.463Z,96607.81
2017-07-27T09:04:04.097Z,96598.25
2017-07-27T09:06:31.724Z,96610.84
2017-07-27T09:08:59.735Z,96605.61
2017-07-27T09:11:27.395Z,96601.66
2017-07-27T09:13:55.058Z,96598.19
2017-07-27T09:16:22.701Z,96599.09
2017-07-27T09:18:50.440Z,96602.19
2017-07-27T09:21:18.360Z,96605.84
2017-07-27T09:23:46.254Z,96609.16
2017-07-27T09:26:13.940Z,96599.97
2017-07-27T09:28:41.606Z,96602.55
2017-07-27T09:31:09.259Z,96604.07
2017-07-27T09:33:37.292Z,96603.27
2017-07-27T09:36:04.975Z,96615.07
2017-07-27T09:38:33.609Z,96607.69
2017-07-27T09:41:01.261Z,96605.66
2017-07-27T09:43:29.250Z,96603.92
2017-07-27T09:45:56.884Z,96601.88
2017-07-27T09:48:24.534Z,96599.88
2017-07-27T09:50:52.196Z,96600.20
2017-07-27T09:53:19.845Z,96597.16
2017-07-27T09:55:47.858Z,96598.58
2017-07-27T09:58:15.491Z,96595.13
2017-07-27T10:00:43.132Z,96588.04
2017-07-27T10:03:10.884Z,96584.91
2017-07-27T10:05:38.641Z,96580.17
2017-07-27T10:08:06.509Z,96574.67
2017-07-27T10:10:34.156Z,96569.98
2017-07-27T10:13:02.081Z,96567.23
2017-07-27T10:15:29.706Z,96569.56
2017-07-27T10:17:57.339Z,96562.58
2017-07-27T10:20:24.989Z,96558.53
2017-07-27T10:22:52.650Z,96546.47
2017-07-27T10:25:20.336Z,96555.09
2017-07-27T10:27:47.977Z,96555.53
2017-07-27T10:30:15.639Z,96555.42
2017-07-27T10:32:43.245Z,96553.92
2017-07-27T10:35:11.287Z,96556.11
2017-07-27T10:37:38.908Z,96561.44
2017-07-27T10:40:06.545Z,96563.73
2017-07-27T10:42:34.206Z,96557.58
2017-07-27T10:45:01.844Z,96556.26
2017-07-27T10:47:29.943Z,96562.56
2017-07-27T10:49:57.693Z,96560.70
2017-07-27T10:52:25.339Z,96569.38
2017-07-27T10:54:52.988Z,96574.23
2017-07-27T10:57:20.605Z,96580.19
2017-07-27T10:59:48.286Z,96578.56
2017-07-27T11:02:15.923Z,96583.72
2017-07-27T11:04:43.788Z,96598.00
2017-07-27T11:07:11.403Z,96597.48
2017-07-27T11:09:39.540Z,96603.25
2017-07-27T11:12:07.168Z,96600.26
2017-07-27T11:14:34.826Z,96605.86
2017-07-27T11:17:02.591Z,96606.43
2017-07-27T11:19:30.237Z,96601.95
2017-07-27T11:21:58.200Z,96601.91
2017-07-27T11:24:25.819Z,96597.20
2017-07-27T11:26:53.459Z,96597.68
2017-07-27T11:29:21.137Z,96595.20
2017-07-27T11:31:48.788Z,96591.45
2017-07-27T11:34:16.450Z,96595.00
2017-07-27T11:36:44.168Z,96590.63
2017-07-27T11:39:12.162Z,96587.01
2017-07-27T11:41:39.801Z,96590.70
2017-07-27T11:44:07.442Z,96593.83
2017-07-27T11:46:35.091Z,96592.16
2017-07-27T11:49:02.691Z,96595.50
2017-07-27T11:51:30.629Z,96587.80
2017-07-27T11:53:58.251Z,96587.84
2017-07-27T11:56:25.890Z,96586.09
2017-07-27T11:58:53.532Z,96583.59
2017-07-27T12:01:21.160Z,96589.03
2017-07-27T12:03:48.811Z,96583.18
2017-07-27T12:06:16.414Z,96587.06
2017-07-27T12:08:44.013Z,96581.81
2017-07-27T12:11:11.922Z,96582.88
2017-07-27T12:13:39.546Z,96580.37
2017-07-27T12:16:07.206Z,96582.93
2017-07-27T12:18:34.944Z,96580.88
2017-07-27T12:21:02.566Z,96582.62
2017-07-27T12:23:30.654Z,96583.14
2017-07-27T12:25:58.284Z,96590.14
2017-07-27T12:28:26.089Z,96580.36
2017-07-27T12:30:53.733Z,96586.85
2017-07-27T12:33:21.372Z,96588.59
2017-07-27T12:35:49.040Z,96581.72
2017-07-27T12:38:16.674Z,96582.62
2017-07-27T12:40:44.317Z,96590.27
2017-07-27T12:43:11.994Z,96592.36
2017-07-27T12:45:39.948Z,96585.83
2017-07-27T12:48:07.600Z,96573.27
2017-07-27T12:50:35.224Z,96576.09
2017-07-27T12:53:02.870Z,96574.29
2017-07-27T12:55:30.491Z,96575.87
2017-07-27T12:57:58.143Z,96579.16
2017-07-27T13:00:25.752Z,96574.38
2017-07-27T13:02:53.659Z,96576.00
2017-07-27T13:05:21.283Z,96572.06
2017-07-27T13:07:48.930Z,96564.61
2017-07-27T13:10:16.601Z,96568.08
2017-07-27T13:12:44.221Z,96573.39
2017-07-27T13:15:12.194Z,96569.88
2017-07-27T13:17:39.820Z,96562.27
2017-07-27T13:20:07.452Z,96563.18
2017-07-27T13:22:35.115Z,96558.55
2017-07-27T13:25:02.742Z,96555.14
2017-07-27T13:27:30.725Z,96557.66
2017-07-27T13:29:58.373Z,96556.33
2017-07-27T13:32:25.999Z,96557.19
2017-07-27T13:34:53.636Z,96557.57
2017-07-27T13:37:21.294Z,96563.95
2017-07-27T13:39:48.948Z,96548.92
2017-07-27T13:42:16.594Z,96539.83
2017-07-27T13:44:44.542Z,96549.23
2017-07-27T13:47:12.145Z,96549.62
2017-07-27T13:49:39.751Z,96553.47
2017-07-27T13:52:07.414Z,96554.74
2017-07-27T13:54:35.040Z,96562.48
2017-07-27T13:57:02.707Z,96565.05
2017-07-27T13:59:30.391Z,96566.34
2017-07-27T14:01:58.291Z,96566.38
2017-07-27T14:04:25.922Z,96569.33
2017-07-27T14:06:53.555Z,96570.95
2017-07-27T14:09:21.215Z,96568.63
2017-07-27T14:11:49.012Z,96568.38
2017-07-27T14:14:16.653Z,96560.10
2017-07-27T14:16:44.277Z,96558.67
2017-07-27T14:19:12.199Z,96559.17
2017-07-27T14:21:39.828Z,96553.84
2017-07-27T14:24:07.459Z,96557.81
2017-07-27T14:26:35.098Z,96553.05
2017-07-27T14:29:02.817Z,96555.91
2017-07-27T14:31:30.771Z,96551.75
2017-07-27T14:33:58.453Z,96544.02
2017-07-27T14:36:26.124Z,96542.41
2017-07-27T14:38:53.778Z,96537.76
2017-07-27T14:41:21.415Z,96542.00
2017-07-27T14:43:49.064Z,96537.56
2017-07-27T14:46:16.820Z,96532.99
2017-07-27T14:48:44.830Z,96531.42
2017-07-27T14:51:12.469Z,96520.03
2017-07-27T14:53:40.104Z,96514.54
2017-07-27T14:56:07.776Z,96511.63
2017-07-27T14:58:35.395Z,96508.08
2017-07-27T15:01:04.050Z,96504.55
2017-07-27T15:03:31.713Z,96507.12
2017-07-27T15:05:59.638Z,96510.85
2017-07-27T15:08:27.247Z,96513.38
2017-07-27T15:10:54.883Z,96514.77
2017-07-27T15:13:22.575Z,96519.33
2017-07-27T15:15:50.199Z,96515.33
2017-07-27T15:18:17.852Z,96507.20
2017-07-27T15:20:45.489Z,96510.91
2017-07-27T15:23:13.144Z,96514.52
2017-07-27T15:25:40.795Z,96514.52
2017-07-27T15:28:08.740Z,96508.88
2017-07-27T15:30:36.376Z,96504.91
2017-07-27T15:33:03.997Z,96512.03
2017-07-27T15:35:31.691Z,96501.67
2017-07-27T15:37:59.309Z,96493.08
2017-07-27T15:40:27.253Z,96500.02
2017-07-27T15:42:55.074Z,96495.97
2017-07-27T15:45:22.735Z,96496.82
2017-07-27T15:47:50.479Z,96499.05
2017-07-27T15:50:18.115Z,96500.81
2017-07-27T15:52:47.020Z,96495.29
2017-07-27T15:55:14.646Z,96496.40
2017-07-27T15:57:42.340Z,96496.39
2017-07-27T16:00:10.142Z,96501.55
2017-07-27T16:02:37.789Z,96493.25
2017-07-27T16:05:05.466Z,96487.52
2017-07-27T16:07:33.120Z,96487.17
2017-07-27T16:10:01.138Z,96492.90
2017-07-27T16:12:28.774Z,96478.64
2017-07-27T16:14:56.409Z,96479.73
2017-07-27T16:17:24.059Z,96479.06
2017-07-27T16:19:51.691Z,96481.80
2017-07-27T16:22:19.358Z,96484.16
2017-07-27T16:24:47.015Z,96484.13
2017-07-27T16:27:15.407Z,96482.00
2017-07-27T16:29:43.048Z,96477.19
2017-07-27T16:32:10.812Z,96465.38
2017-07-27T16:34:38.605Z,96465.80
2017-07-27T16:37:06.251Z,96467.96
2017-07-27T16:39:33.940Z,96464.95
2017-07-27T16:42:01.584Z,96457.50
2017-07-27T16:44:29.530Z,96455.44
2017-07-27T16:46:57.232Z,96458.84
2017-07-27T16:49:25.286Z,96467.74
2017-07-27T16:51:53.009Z,96476.16
2017-07-27T16:54:20.635Z,96478.15
2017-07-27T16:56:48.305Z,96488.11
2017-07-27T16:59:15.978Z,96483.25
2017-07-27T17:01:44.022Z,96494.06
2017-07-27T17:04:11.665Z,96494.57
2017-07-27T17:06:39.379Z,96492.86
2017-07-27T17:09:07.048Z,96487.45
2017-07-27T17:11:34.805Z,96487.16
2017-07-27T17:14:02.464Z,96496.30
2017-07-27T17:16:30.155Z,96493.84
2017-07-27T17:18:58.105Z,96495.31
2017-07-27T17:21:25.751Z,96488.55
2017-07-27T17:23:53.404Z,96496.84
2017-07-27T17:26:21.089Z,96496.16
2017-07-27T17:28:48.691Z,96498.05
2017-07-27T17:31:16.346Z,96503.70
2017-07-27T17:33:44.003Z,96508.55
2017-07-27T17:36:11.938Z,96514.62
2017-07-27T17:38:39.676Z,96504.19
2017-07-27T17:41:07.428Z,96502.11
2017-07-27T17:43:35.233Z,96503.57
2017-07-27T17:46:02.869Z,96511.38
2017-07-27T17:48:30.529Z,96514.91
2017-07-27T17:50:58.168Z,96516.31
2017-07-27T17:53:26.094Z,96506.95
2017-07-27T17:55:53.741Z,96512.19
2017-07-27T17:58:21.486Z,96512.27
2017-07-27T18:00:49.149Z,96514.52
2017-07-27T18:03:18.238Z,96516.40
2017-07-27T18:05:45.969Z,96506.23
2017-07-27T18:08:13.651Z,96511.08
2017-07-27T18:10:41.336Z,96514.28
2017-07-27T18:13:09.465Z,96514.41
2017-07-27T18:15:37.155Z,96508.17
2017-07-27T18:18:04.803Z,96508.34
2017-07-27T18:20:32.477Z,96493.94
2017-07-27T18:23:00.138Z,96477.33
2017-07-27T18:25:27.823Z,96470.97
2017-07-27T18:27:55.445Z,96473.20
2017-07-27T18:30:23.987Z,96463.89
2017-07-27T18:32:51.731Z,96469.20
2017-07-27T18:35:19.415Z,96469.69
2017-07-27T18:37:47.042Z,96473.66
2017-07-27T18:40:14.680Z,96468.25
2017-07-27T18:42:42.481Z,96458.09
2017-07-27T18:45:10.101Z,96447.53
2017-07-27T18:47:37.790Z,96455.02
2017-07-27T18:50:05.419Z,96461.08
2017-07-27T18:52:33.084Z,96466.32
2017-07-27T18:55:00.714Z,96470.28
2017-07-27T18:57:28.379Z,96472.09
2017-07-27T18:59:56.109Z,96468.36
2017-07-27T19:02:23.772Z,96470.98
2017-07-27T19:04:52.562Z,96471.08
2017-07-27T19:07:20.572Z,96469.84
2017-07-27T19:09:48.201Z,96467.44
2017-07-27T19:12:15.859Z,96469.25
2017-07-27T19:14:43.483Z,96463.70
2017-07-27T19:17:11.151Z,96473.23
2017-07-27T19:19:39.109Z,96478.88
2017-07-27T19:22:06.836Z,96494.30
2017-07-27T19:24:34.496Z,96493.97
2017-07-27T19:27:02.813Z,96490.64
2017-07-27T19:29:30.507Z,96491.12
2017-07-27T19:31:58.185Z,96496.73
2017-07-27T19:34:25.799Z,96492.59
2017-07-27T19:36:53.802Z,96491.84
2017-07-27T19:39:22.417Z,96496.59
2017-07-27T19:41:50.210Z,96486.38
2017-07-27T19:44:19.292Z,96484.75
2017-07-27T19:46:46.947Z,96486.48
2017-07-27T19:49:14.715Z,96488.28
2017-07-27T19:51:42.863Z,96487.91
2017-07-27T19:54:10.975Z,96485.38
2017-07-27T19:56:38.696Z,96495.69
2017-07-27T19:59:06.332Z,96490.99
2017-07-27T20:01:33.986Z,96493.61
2017-07-27T20:04:01.639Z,96493.22
2017-07-27T20:06:30.434Z,96497.97
